createdAt,value
2022-12-17T00:01:26.262Z,101118.16
2022-12-17T00:04:33.460Z,101112.16
2022-12-17T00:07:40.366Z,101099.97
2022-12-17T00:10:47.443Z,101119.50
2022-12-17T00:13:54.314Z,101114.34
2022-12-17T00:17:03.033Z,101121.41
2022-12-17T00:20:09.957Z,101103.53
2022-12-17T00:23:20.200Z,101103.81
2022-12-17T00:26:27.606Z,101104.34
2022-12-17T00:29:34.630Z,101102.47
2022-12-17T00:32:42.822Z,101087.59
2022-12-17T00:35:51.248Z,101102.44
2022-12-17T00:38:58.909Z,101090.03
2022-12-17T00:42:05.966Z,101090.56
2022-12-17T00:45:12.418Z,101085.66
2022-12-17T00:48:20.570Z,101079.41
2022-12-17T00:51:27.382Z,101075.00
2022-12-17T00:54:34.489Z,101083.22
2022-12-17T00:57:41.629Z,101096.50
2022-12-17T01:00:48.868Z,101091.06
2022-12-17T01:03:57.054Z,101094.59
2022-12-17T01:07:04.029Z,101095.09
2022-12-17T01:10:11.319Z,101104.06
2022-12-17T01:13:18.124Z,101110.03
2022-12-17T01:16:28.141Z,101101.03
2022-12-17T01:19:36.354Z,101107.28
2022-12-17T01:22:45.238Z,101110.50
2022-12-17T01:25:51.773Z,101111.00
2022-12-17T01:28:58.944Z,101114.25
2022-12-17T01:32:05.538Z,101110.72
2022-12-17T01:35:13.606Z,101097.75
2022-12-17T01:38:20.643Z,101092.53
2022-12-17T01:41:28.297Z,101083.66
2022-12-17T01:45:06.770Z,101098.81
2022-12-17T01:48:14.809Z,101102.59
2022-12-17T01:51:24.401Z,101099.03
2022-12-17T01:54:32.090Z,101089.06
2022-12-17T01:57:38.788Z,101103.19
2022-12-17T02:00:45.897Z,101088.53
2022-12-17T02:03:52.754Z,101095.91
2022-12-17T02:07:13.547Z,101089.41
2022-12-17T02:10:36.946Z,101087.44
2022-12-17T02:14:05.830Z,101089.50
2022-12-17T02:17:19.232Z,101108.03
2022-12-17T02:20:40.059Z,101117.81
2022-12-17T02:24:00.775Z,101125.94
2022-12-17T02:27:13.002Z,101115.88
2022-12-17T02:30:25.320Z,101127.31
2022-12-17T02:33:33.613Z,101108.31
2022-12-17T02:36:41.207Z,101109.13
2022-12-17T02:39:48.723Z,101099.63
2022-12-17T02:42:57.501Z,101108.78
2022-12-17T02:46:06.215Z,101109.59
2022-12-17T02:49:13.429Z,101099.56
2022-12-17T02:52:23.071Z,101103.66
2022-12-17T02:55:30.189Z,101112.91
2022-12-17T02:58:38.323Z,101100.94
2022-12-17T03:01:44.938Z,101106.31
2022-12-17T03:04:52.150Z,101117.13
2022-12-17T03:07:59.199Z,101106.63
2022-12-17T03:11:06.192Z,101102.50
2022-12-17T03:14:14.263Z,101095.13
2022-12-17T03:17:21.493Z,101095.88
2022-12-17T03:20:29.875Z,101098.06
2022-12-17T03:23:36.479Z,101107.25
2022-12-17T03:26:43.771Z,101104.06
2022-12-17T03:29:51.874Z,101094.53
2022-12-17T03:32:58.645Z,101085.63
2022-12-17T03:36:19.988Z,101068.00
2022-12-17T03:39:27.009Z,101070.19
2022-12-17T03:42:33.680Z,101071.09
2022-12-17T03:45:41.799Z,101078.91
2022-12-17T03:48:48.501Z,101066.28
2022-12-17T03:51:54.971Z,101070.88
2022-12-17T03:55:16.717Z,101072.75
2022-12-17T03:58:23.286Z,101077.88
2022-12-17T04:01:31.485Z,101054.75
2022-12-17T04:04:47.020Z,101071.69
2022-12-17T04:07:53.696Z,101073.31
2022-12-17T04:11:00.636Z,101069.53
2022-12-17T04:14:07.539Z,101070.59
2022-12-17T04:17:15.737Z,101069.53
2022-12-17T04:20:23.380Z,101077.13
2022-12-17T04:23:30.260Z,101073.66
2022-12-17T04:26:36.708Z,101066.59
2022-12-17T04:29:43.235Z,101064.47
2022-12-17T04:32:51.326Z,101064.69
2022-12-17T04:35:54.448Z,101071.22
2022-12-17T04:39:00.864Z,101072.84
2022-12-17T04:42:07.834Z,101064.75
2022-12-17T04:45:14.705Z,101066.88
2022-12-17T04:48:25.490Z,101063.66
2022-12-17T04:51:28.707Z,101068.81
2022-12-17T04:54:35.057Z,101050.13
2022-12-17T04:57:42.031Z,101065.03
2022-12-17T05:00:48.935Z,101061.28
2022-12-17T05:03:57.584Z,101065.28
2022-12-17T05:07:04.367Z,101055.03
2022-12-17T05:10:11.098Z,101068.59
2022-12-17T05:13:18.618Z,101040.03
2022-12-17T05:16:25.669Z,101073.50
2022-12-17T05:19:42.326Z,101065.91
2022-12-17T05:22:49.264Z,101055.84
2022-12-17T05:25:56.078Z,101062.91
2022-12-17T05:29:03.186Z,101069.13
2022-12-17T05:32:10.447Z,101067.78
2022-12-17T05:35:18.674Z,101066.69
2022-12-17T05:38:28.441Z,101066.91
2022-12-17T05:41:35.311Z,101067.00
2022-12-17T05:44:42.259Z,101068.81
2022-12-17T05:47:48.723Z,101071.59
2022-12-17T05:50:56.781Z,101070.22
2022-12-17T05:54:03.455Z,101063.16
2022-12-17T05:57:09.896Z,101068.00
2022-12-17T06:00:16.947Z,101043.53
2022-12-17T06:03:24.423Z,101077.25
2022-12-17T06:06:32.799Z,101069.94
2022-12-17T06:09:40.305Z,101069.41
2022-12-17T06:12:47.300Z,101051.47
2022-12-17T06:15:54.337Z,101057.47
2022-12-17T06:19:01.453Z,101038.75
2022-12-17T06:22:09.864Z,101045.84
2022-12-17T06:25:16.534Z,101078.66
2022-12-17T06:28:23.639Z,101062.94
2022-12-17T06:31:30.917Z,101073.53
2022-12-17T06:34:37.559Z,101067.03
2022-12-17T06:37:45.604Z,101073.31
2022-12-17T06:40:52.589Z,101067.59
2022-12-17T06:43:59.388Z,101085.19
2022-12-17T06:47:06.353Z,101077.84
2022-12-17T06:50:13.282Z,101070.28
2022-12-17T06:53:25.649Z,101052.63
2022-12-17T06:56:32.232Z,101079.50
2022-12-17T06:59:39.176Z,101067.00
2022-12-17T07:02:45.697Z,101062.97
2022-12-17T07:05:53.078Z,101061.84
2022-12-17T07:09:01.044Z,101074.84
2022-12-17T07:12:08.179Z,101073.50
2022-12-17T07:15:14.578Z,101072.97
2022-12-17T07:18:23.355Z,101072.41
2022-12-17T07:21:30.029Z,100989.75
2022-12-17T07:24:38.111Z,101082.16
2022-12-17T07:27:56.559Z,101074.59
2022-12-17T07:31:03.595Z,101069.97
2022-12-17T07:34:10.494Z,101086.47
2022-12-17T07:37:28.519Z,101073.41
2022-12-17T07:40:36.411Z,101087.88
2022-12-17T07:43:43.622Z,101094.63
2022-12-17T07:46:52.929Z,101101.13
2022-12-17T07:49:59.748Z,101076.44
2022-12-17T07:53:06.217Z,101098.69
2022-12-17T07:56:22.688Z,101101.41
2022-12-17T07:59:29.282Z,101103.31
2022-12-17T08:02:35.890Z,101106.00
2022-12-17T08:05:42.898Z,101120.69
2022-12-17T08:08:49.484Z,101086.94
2022-12-17T08:11:57.499Z,101123.09
2022-12-17T08:15:04.249Z,101121.47
2022-12-17T08:18:10.927Z,101135.28
2022-12-17T08:21:17.938Z,101128.50
2022-12-17T08:24:25.092Z,101134.19
2022-12-17T08:27:33.255Z,101134.41
2022-12-17T08:30:39.781Z,101137.97
2022-12-17T08:33:46.972Z,101125.75
2022-12-17T08:36:54.336Z,101127.69
2022-12-17T08:40:01.374Z,101132.78
2022-12-17T08:43:16.117Z,101122.47
2022-12-17T08:46:23.127Z,101118.16
2022-12-17T08:49:30.048Z,101136.31
2022-12-17T08:52:37.000Z,101145.50
2022-12-17T08:55:43.716Z,101144.75
2022-12-17T08:58:57.173Z,101151.47
2022-12-17T09:02:05.745Z,101162.31
2022-12-17T09:05:12.521Z,101156.31
2022-12-17T09:08:27.312Z,101162.03
2022-12-17T09:11:34.385Z,101158.19
2022-12-17T09:14:42.591Z,101159.00
2022-12-17T09:17:49.537Z,101164.78
2022-12-17T09:20:56.598Z,101165.06
2022-12-17T09:24:03.593Z,101165.88
2022-12-17T09:27:10.882Z,101172.66
2022-12-17T09:30:19.290Z,101179.19
2022-12-17T09:33:26.190Z,101176.78
2022-12-17T09:36:33.113Z,101192.25
2022-12-17T09:39:39.822Z,101178.66
2022-12-17T09:42:59.862Z,101207.50
2022-12-17T09:46:18.538Z,101203.47
2022-12-17T09:49:36.543Z,101187.97
2022-12-17T09:52:47.296Z,101187.47
2022-12-17T09:56:04.926Z,101193.50
2022-12-17T09:59:12.016Z,101202.72
2022-12-17T10:02:32.256Z,101210.94
2022-12-17T10:05:44.141Z,101215.31
2022-12-17T10:08:51.093Z,101210.75
2022-12-17T10:11:58.089Z,101209.72
2022-12-17T10:15:04.546Z,101208.94
2022-12-17T10:18:12.828Z,101207.31
2022-12-17T10:21:21.071Z,101211.63
2022-12-17T10:24:29.599Z,101215.44
2022-12-17T10:27:39.041Z,101230.09
2022-12-17T10:30:47.281Z,101220.59
2022-12-17T10:33:59.107Z,101229.00
2022-12-17T10:37:09.312Z,101226.56
2022-12-17T10:40:19.727Z,101222.25
2022-12-17T10:43:46.705Z,101230.16
2022-12-17T10:46:53.907Z,101230.69
2022-12-17T10:50:02.416Z,101240.50
2022-12-17T10:53:15.864Z,101231.78
2022-12-17T10:56:24.154Z,101231.00
2022-12-17T10:59:32.091Z,101224.72
2022-12-17T11:02:45.555Z,101211.41
2022-12-17T11:05:59.680Z,101217.97
2022-12-17T11:09:06.871Z,101220.44
2022-12-17T11:12:13.854Z,101224.78
2022-12-17T11:15:33.920Z,101211.44
2022-12-17T11:18:46.560Z,101214.47
2022-12-17T11:22:03.330Z,101212.56
2022-12-17T11:25:21.539Z,101215.56
2022-12-17T11:28:36.233Z,101211.22
2022-12-17T11:32:05.211Z,101202.28
2022-12-17T11:35:25.491Z,101215.59
2022-12-17T11:38:48.279Z,101218.06
2022-12-17T11:42:11.219Z,101217.25
2022-12-17T11:45:23.892Z,101217.78
2022-12-17T11:48:41.011Z,101219.97
2022-12-17T11:51:59.667Z,101211.28
2022-12-17T11:55:17.748Z,101212.34
2022-12-17T11:58:35.105Z,101202.31
2022-12-17T12:01:52.389Z,101205.22
2022-12-17T12:05:25.090Z,101194.88
2022-12-17T12:08:40.321Z,101191.38
2022-12-17T12:11:56.585Z,101187.56
2022-12-17T12:15:16.669Z,101184.84
2022-12-17T12:18:29.408Z,101183.16
2022-12-17T12:21:59.441Z,101197.50
2022-12-17T12:25:31.322Z,101189.81
2022-12-17T12:28:49.739Z,101182.19
2022-12-17T12:32:03.317Z,101187.34
2022-12-17T12:35:13.240Z,101170.16
2022-12-17T12:38:21.325Z,101174.09
2022-12-17T12:41:38.529Z,101164.78
2022-12-17T12:44:56.576Z,101166.81
2022-12-17T12:48:12.707Z,101179.94
2022-12-17T12:51:33.722Z,101170.75
2022-12-17T12:54:48.858Z,101173.47
2022-12-17T12:57:59.183Z,101160.97
2022-12-17T13:01:14.748Z,101164.19
2022-12-17T13:04:41.908Z,101155.72
2022-12-17T13:07:33.907Z,101153.59
2022-12-17T13:10:30.966Z,101165.00
2022-12-17T13:13:36.012Z,101159.84
2022-12-17T13:16:51.078Z,101169.63
2022-12-17T13:19:43.000Z,101175.00
2022-12-17T13:22:34.756Z,101152.19
2022-12-17T13:25:25.272Z,101174.47
2022-12-17T13:28:30.882Z,101170.13
2022-12-17T13:31:26.594Z,101173.97
2022-12-17T13:34:27.210Z,101178.66
2022-12-17T13:37:27.832Z,101190.13
2022-12-17T13:40:35.193Z,101170.59
2022-12-17T13:43:32.095Z,101173.25
2022-12-17T13:46:24.045Z,101164.03
2022-12-17T13:49:23.099Z,101162.94
2022-12-17T13:52:20.262Z,101159.69
2022-12-17T13:55:19.611Z,101159.13
2022-12-17T13:58:27.492Z,101156.16
2022-12-17T14:01:16.946Z,101171.91
2022-12-17T14:04:07.375Z,101165.44
2022-12-17T14:07:01.306Z,101155.94
2022-12-17T14:09:51.100Z,101161.09
2022-12-17T14:12:40.693Z,101151.31
2022-12-17T14:15:34.311Z,101165.47
2022-12-17T14:18:23.766Z,101163.56
2022-12-17T14:21:13.300Z,101160.06
2022-12-17T14:24:04.728Z,101163.84
2022-12-17T14:26:56.419Z,101159.78
2022-12-17T14:29:48.017Z,101149.75
2022-12-17T14:32:38.362Z,101153.28
2022-12-17T14:35:30.576Z,101157.06
2022-12-17T14:38:37.122Z,101155.16
2022-12-17T14:41:47.845Z,101147.81
2022-12-17T14:44:39.700Z,101145.97
2022-12-17T14:47:31.688Z,101142.41
2022-12-17T14:50:31.332Z,101149.78
2022-12-17T14:53:28.932Z,101160.13
2022-12-17T14:56:25.037Z,101149.25
2022-12-17T14:59:27.141Z,101155.25
2022-12-17T15:02:26.423Z,101153.91
2022-12-17T15:05:17.182Z,101137.03
2022-12-17T15:08:07.263Z,101147.94
2022-12-17T15:10:56.765Z,101162.88
2022-12-17T15:13:49.129Z,101155.00
2022-12-17T15:16:42.684Z,101165.59
2022-12-17T15:19:32.645Z,101159.38
2022-12-17T15:22:22.220Z,101155.84
2022-12-17T15:25:14.154Z,101158.00
2022-12-17T15:28:03.858Z,101159.94
2022-12-17T15:30:53.309Z,101163.16
2022-12-17T15:33:44.522Z,101163.16
2022-12-17T15:36:34.534Z,101154.75
2022-12-17T15:39:23.866Z,101157.19
2022-12-17T15:42:30.660Z,101149.03
2022-12-17T15:45:20.091Z,101147.44
2022-12-17T15:48:09.558Z,101152.06
2022-12-17T15:51:00.214Z,101158.03
2022-12-17T15:53:49.774Z,101147.16
2022-12-17T15:56:39.041Z,101149.06
2022-12-17T15:59:28.376Z,101158.84
2022-12-17T16:02:17.836Z,101146.09
2022-12-17T16:05:08.519Z,101148.25
2022-12-17T16:08:02.480Z,101145.28
2022-12-17T16:10:52.169Z,101157.47
2022-12-17T16:13:42.104Z,101157.75
2022-12-17T16:16:31.982Z,101159.09
2022-12-17T16:19:25.276Z,101165.31
2022-12-17T16:22:14.689Z,101159.34
2022-12-17T16:25:06.141Z,101165.56
2022-12-17T16:27:55.606Z,101170.44
2022-12-17T16:30:45.014Z,101169.28
2022-12-17T16:33:36.043Z,101181.75
2022-12-17T16:36:26.138Z,101180.00
2022-12-17T16:39:18.980Z,101186.75
2022-12-17T16:42:10.042Z,101181.03
2022-12-17T16:44:59.448Z,101174.75
2022-12-17T16:47:50.786Z,101157.91
2022-12-17T16:50:40.173Z,101172.00
2022-12-17T16:53:32.404Z,101177.13
2022-12-17T16:56:24.714Z,101166.53
2022-12-17T16:59:17.934Z,101182.28
2022-12-17T17:02:13.203Z,101185.22
2022-12-17T17:05:02.709Z,101180.06
2022-12-17T17:07:52.178Z,101183.31
2022-12-17T17:10:41.522Z,101166.47
2022-12-17T17:13:30.794Z,101170.81
2022-12-17T17:16:24.305Z,101172.69
2022-12-17T17:19:13.813Z,101174.28
2022-12-17T17:22:03.391Z,101189.97
2022-12-17T17:24:53.611Z,101188.81
2022-12-17T17:27:44.743Z,101187.72
2022-12-17T17:30:34.302Z,101188.44
2022-12-17T17:33:29.681Z,101202.25
2022-12-17T17:36:22.225Z,101191.31
2022-12-17T17:39:11.837Z,101189.63
2022-12-17T17:42:01.356Z,101184.19
2022-12-17T17:44:50.835Z,101189.34
2022-12-17T17:47:40.340Z,101175.47
2022-12-17T17:50:31.096Z,101181.41
2022-12-17T17:53:20.371Z,101171.84
2022-12-17T17:56:15.240Z,101135.59
2022-12-17T17:59:07.256Z,101155.16
2022-12-17T18:01:56.667Z,101169.28
2022-12-17T18:04:46.096Z,101157.81
2022-12-17T18:07:36.802Z,101172.44
2022-12-17T18:10:26.111Z,101171.91
2022-12-17T18:13:32.904Z,101174.41
2022-12-17T18:16:23.903Z,101171.13
2022-12-17T18:19:16.466Z,101183.63
2022-12-17T18:22:05.826Z,101162.19
2022-12-17T18:24:56.485Z,101178.47
2022-12-17T18:27:45.873Z,101118.81
2022-12-17T18:30:35.393Z,101177.88
2022-12-17T18:33:25.321Z,101187.56
2022-12-17T18:36:18.184Z,101183.69
2022-12-17T18:39:12.278Z,101191.22
2022-12-17T18:42:20.263Z,101181.41
2022-12-17T18:45:10.522Z,101195.81
2022-12-17T18:47:59.852Z,101189.59
2022-12-17T18:50:49.125Z,101193.38
2022-12-17T18:53:38.417Z,101194.19
2022-12-17T18:56:59.469Z,101185.50
2022-12-17T18:59:40.874Z,101182.00
2022-12-17T19:02:30.495Z,101186.00
2022-12-17T19:05:19.976Z,101166.72
2022-12-17T19:08:09.243Z,101174.78
2022-12-17T19:11:04.491Z,101177.47
2022-12-17T19:13:53.812Z,101184.16
2022-12-17T19:16:44.966Z,101168.31
2022-12-17T19:19:34.687Z,101172.59
2022-12-17T19:22:23.915Z,101202.88
2022-12-17T19:25:13.548Z,101184.06
2022-12-17T19:28:02.903Z,101188.97
2022-12-17T19:30:58.390Z,101188.09
2022-12-17T19:33:49.662Z,101192.13
2022-12-17T19:36:40.880Z,101200.06
2022-12-17T19:39:30.367Z,101191.13
2022-12-17T19:42:25.808Z,101181.75
2022-12-17T19:45:15.102Z,101180.00
2022-12-17T19:48:04.502Z,101174.63
2022-12-17T19:50:59.113Z,101174.25
2022-12-17T19:53:49.628Z,101157.59
2022-12-17T19:56:39.120Z,101170.56
2022-12-17T19:59:28.473Z,101164.94
2022-12-17T20:02:17.863Z,101160.22
2022-12-17T20:05:08.985Z,101162.47
2022-12-17T20:07:59.691Z,101168.56
2022-12-17T20:10:49.071Z,101170.72
2022-12-17T20:13:38.436Z,101148.00
2022-12-17T20:16:27.840Z,101158.09
2022-12-17T20:19:19.956Z,101153.56
2022-12-17T20:22:09.304Z,101150.97
2022-12-17T20:25:02.066Z,101162.47
2022-12-17T20:27:51.450Z,101153.00
2022-12-17T20:30:41.378Z,101144.66
2022-12-17T20:33:31.544Z,101153.91
2022-12-17T20:36:22.835Z,101138.75
2022-12-17T20:39:13.293Z,101132.81
2022-12-17T20:42:04.026Z,101129.84
2022-12-17T20:44:53.758Z,101136.94
2022-12-17T20:47:43.150Z,101130.16
2022-12-17T20:50:32.687Z,101117.66
2022-12-17T20:53:22.583Z,101124.19
2022-12-17T20:56:14.818Z,101111.19
2022-12-17T20:59:08.775Z,101122.28
2022-12-17T21:01:58.215Z,101132.88
2022-12-17T21:04:47.760Z,101133.38
2022-12-17T21:07:37.290Z,101129.00
2022-12-17T21:10:26.617Z,101131.19
2022-12-17T21:13:31.380Z,101135.25
2022-12-17T21:16:25.305Z,101140.16
2022-12-17T21:19:21.546Z,101149.13
2022-12-17T21:22:11.198Z,101157.84
2022-12-17T21:25:02.148Z,101139.09
2022-12-17T21:27:51.463Z,101145.13
2022-12-17T21:30:40.892Z,101116.03
2022-12-17T21:33:32.179Z,101145.03
2022-12-17T21:36:22.940Z,101113.22
2022-12-17T21:39:14.970Z,101146.88
2022-12-17T21:42:22.023Z,101161.50
2022-12-17T21:45:11.999Z,101157.94
2022-12-17T21:48:01.448Z,101173.16
2022-12-17T21:50:52.891Z,101170.09
2022-12-17T21:53:43.775Z,101165.22
2022-12-17T21:56:33.239Z,101163.59
2022-12-17T21:59:22.754Z,101157.03
2022-12-17T22:02:12.550Z,101156.50
2022-12-17T22:05:02.252Z,101163.75
2022-12-17T22:07:54.521Z,101134.91
2022-12-17T22:10:47.679Z,101150.38
2022-12-17T22:14:01.881Z,101150.59
2022-12-17T22:16:56.229Z,101144.31
2022-12-17T22:19:45.680Z,101111.16
2022-12-17T22:22:35.373Z,101127.53
2022-12-17T22:25:26.225Z,101125.59
2022-12-17T22:28:15.678Z,101115.00
2022-12-17T22:31:23.914Z,101135.84
2022-12-17T22:35:02.521Z,101124.66
2022-12-17T22:41:36.947Z,101125.44
2022-12-17T22:44:33.646Z,101117.00
2022-12-17T22:44:46.624Z,101125.38
2022-12-17T22:46:55.359Z,101121.00
2022-12-17T22:49:44.845Z,101108.75
2022-12-17T22:52:34.159Z,101091.09
2022-12-17T22:55:24.147Z,101099.50
2022-12-17T22:58:15.251Z,101098.34
2022-12-17T23:01:06.083Z,101112.66
2022-12-17T23:03:56.759Z,101115.34
2022-12-17T23:06:47.280Z,101089.59
2022-12-17T23:09:36.675Z,101094.69
2022-12-17T23:12:43.691Z,101106.28
2022-12-17T23:15:38.399Z,101093.75
2022-12-17T23:18:27.798Z,101088.88
2022-12-17T23:21:20.410Z,101072.84
2022-12-17T23:24:10.517Z,101076.38
2022-12-17T23:27:00.104Z,101070.34
2022-12-17T23:29:49.522Z,101083.59
2022-12-17T23:32:40.495Z,101069.22
2022-12-17T23:35:29.870Z,101072.53
2022-12-17T23:38:19.188Z,101076.84
2022-12-17T23:41:12.124Z,101063.31
2022-12-17T23:44:01.924Z,101066.94
2022-12-17T23:46:51.584Z,101050.75
2022-12-17T23:49:42.344Z,101051.59
2022-12-17T23:52:31.675Z,101052.75
2022-12-17T23:55:21.104Z,101047.88
2022-12-17T23:58:10.417Z,101043.56
